sensor_id;sensor_type;location;lat;lon;timestamp;temperature;humidity
12771;DHT22;6449;47.666;9.160;2022-12-29T04:50:20;5.90;99.90
12771;DHT22;6449;47.666;9.160;2022-12-29T04:55:13;5.90;99.90
12771;DHT22;6449;47.666;9.160;2022-12-29T05:00:10;5.80;99.90
12771;DHT22;6449;47.666;9.160;2022-12-29T05:05:05;5.70;99.90
12771;DHT22;6449;47.666;9.160;2022-12-29T05:10:00;5.60;99.90
12771;DHT22;6449;47.666;9.160;2022-12-29T05:14:54;5.50;99.90
12771;DHT22;6449;47.666;9.160;2022-12-29T05:19:47;5.50;99.90
12771;DHT22;6449;47.666;9.160;2022-12-29T05:24:40;5.40;99.90
12771;DHT22;6449;47.666;9.160;2022-12-29T05:29:35;5.30;99.90
12771;DHT22;6449;47.666;9.160;2022-12-29T05:34:28;5.20;99.90
12771;DHT22;6449;47.666;9.160;2022-12-29T05:39:22;5.20;99.90
12771;DHT22;6449;47.666;9.160;2022-12-29T06:03:54;5.00;99.90
12771;DHT22;6449;47.666;9.160;2022-12-29T06:09:56;5.00;99.90
12771;DHT22;6449;47.666;9.160;2022-12-29T10:16:35;8.50;99.90
12771;DHT22;6449;47.666;9.160;2022-12-29T11:39:59;8.40;99.90
12771;DHT22;6449;47.666;9.160;2022-12-29T11:44:56;8.40;99.90
12771;DHT22;6449;47.666;9.160;2022-12-29T11:49:51;8.60;99.90
12771;DHT22;6449;47.666;9.160;2022-12-29T11:54:48;8.80;99.90
12771;DHT22;6449;47.666;9.160;2022-12-29T14:29:45;8.40;99.90
12771;DHT22;6449;47.666;9.160;2022-12-29T14:55:38;8.50;99.90
12771;DHT22;6449;47.666;9.160;2022-12-29T15:00:35;8.50;99.90
12771;DHT22;6449;47.666;9.160;2022-12-29T15:05:36;8.50;99.90
12771;DHT22;6449;47.666;9.160;2022-12-29T15:10:42;8.50;99.90
12771;DHT22;6449;47.666;9.160;2022-12-29T15:15:40;8.60;99.90
12771;DHT22;6449;47.666;9.160;2022-12-29T15:20:37;8.60;99.90
12771;DHT22;6449;47.666;9.160;2022-12-29T15:25:31;8.60;99.90
12771;DHT22;6449;47.666;9.160;2022-12-29T15:30:26;8.60;99.90
12771;DHT22;6449;47.666;9.160;2022-12-29T15:35:26;8.60;99.90
12771;DHT22;6449;47.666;9.160;2022-12-29T15:40:24;8.50;99.90
12771;DHT22;6449;47.666;9.160;2022-12-29T15:45:19;8.50;99.90
12771;DHT22;6449;47.666;9.160;2022-12-29T15:50:21;8.50;99.90
12771;DHT22;6449;47.666;9.160;2022-12-29T15:55:21;8.50;99.90
12771;DHT22;6449;47.666;9.160;2022-12-29T16:00:22;8.60;99.90
12771;DHT22;6449;47.666;9.160;2022-12-29T16:05:19;8.50;99.90
12771;DHT22;6449;47.666;9.160;2022-12-29T16:10:26;8.50;99.90
12771;DHT22;6449;47.666;9.160;2022-12-29T16:15:25;8.60;99.90
12771;DHT22;6449;47.666;9.160;2022-12-29T16:20:23;8.50;99.90
12771;DHT22;6449;47.666;9.160;2022-12-29T16:25:25;8.40;99.90
12771;DHT22;6449;47.666;9.160;2022-12-29T16:30:24;8.40;99.90
12771;DHT22;6449;47.666;9.160;2022-12-29T16:35:26;8.30;99.90
12771;DHT22;6449;47.666;9.160;2022-12-29T16:40:27;8.30;99.90
12771;DHT22;6449;47.666;9.160;2022-12-29T16:51:15;8.20;99.90
12771;DHT22;6449;47.666;9.160;2022-12-29T16:56:15;8.20;99.90
12771;DHT22;6449;47.666;9.160;2022-12-29T17:01:10;8.30;99.90
12771;DHT22;6449;47.666;9.160;2022-12-29T17:06:11;8.20;99.90
12771;DHT22;6449;47.666;9.160;2022-12-29T17:11:21;8.20;99.90
12771;DHT22;6449;47.666;9.160;2022-12-29T17:30:09;8.20;99.90
12771;DHT22;6449;47.666;9.160;2022-12-29T17:35:04;8.30;99.90
12771;DHT22;6449;47.666;9.160;2022-12-29T17:39:58;8.30;99.90
12771;DHT22;6449;47.666;9.160;2022-12-29T18:31:34;7.90;99.90
12771;DHT22;6449;47.666;9.160;2022-12-29T18:36:28;7.90;99.90
12771;DHT22;6449;47.666;9.160;2022-12-29T18:46:39;7.80;99.90
12771;DHT22;6449;47.666;9.160;2022-12-29T18:51:32;7.80;99.90
12771;DHT22;6449;47.666;9.160;2022-12-29T18:56:26;7.80;99.90
12771;DHT22;6449;47.666;9.160;2022-12-29T19:01:21;7.80;99.90
12771;DHT22;6449;47.666;9.160;2022-12-29T19:06:18;7.70;99.90
12771;DHT22;6449;47.666;9.160;2022-12-29T19:11:12;7.60;99.90
12771;DHT22;6449;47.666;9.160;2022-12-29T19:48:58;7.60;99.90
12771;DHT22;6449;47.666;9.160;2022-12-29T20:01:04;7.60;99.90
12771;DHT22;6449;47.666;9.160;2022-12-29T20:06:01;7.60;99.90
12771;DHT22;6449;47.666;9.160;2022-12-29T20:10:58;7.50;99.90
12771;DHT22;6449;47.666;9.160;2022-12-29T22:15:34;7.30;99.90
